sensor_id;sensor_type;location;lat;lon;timestamp;temperature;humidity
1377;DHT22;682;52.502;13.488;2022-11-15T00:02:07;5.80;1.00
1377;DHT22;682;52.502;13.488;2022-11-15T00:04:35;5.80;1.00
1377;DHT22;682;52.502;13.488;2022-11-15T00:07:07;5.80;1.00
1377;DHT22;682;52.502;13.488;2022-11-15T00:09:34;5.80;1.00
1377;DHT22;682;52.502;13.488;2022-11-15T00:12:07;5.80;1.00
1377;DHT22;682;52.502;13.488;2022-11-15T00:14:36;5.80;1.00
1377;DHT22;682;52.502;13.488;2022-11-15T00:17:07;5.80;1.00
1377;DHT22;682;52.502;13.488;2022-11-15T00:19:34;5.70;1.00
1377;DHT22;682;52.502;13.488;2022-11-15T00:22:01;5.70;1.00
1377;DHT22;682;52.502;13.488;2022-11-15T00:24:32;5.70;1.00
1377;DHT22;682;52.502;13.488;2022-11-15T00:27:00;5.70;1.00
1377;DHT22;682;52.502;13.488;2022-11-15T00:29:32;5.60;1.00
1377;DHT22;682;52.502;13.488;2022-11-15T00:32:01;5.60;1.00
1377;DHT22;682;52.502;13.488;2022-11-15T00:34:34;5.60;1.00
1377;DHT22;682;52.502;13.488;2022-11-15T00:37:01;5.60;1.00
1377;DHT22;682;52.502;13.488;2022-11-15T00:39:33;5.50;1.00
1377;DHT22;682;52.502;13.488;2022-11-15T00:42:00;5.60;1.00
1377;DHT22;682;52.502;13.488;2022-11-15T00:44:27;5.50;1.00
1377;DHT22;682;52.502;13.488;2022-11-15T00:46:54;5.50;1.00
1377;DHT22;682;52.502;13.488;2022-11-15T00:49:27;5.40;1.00
1377;DHT22;682;52.502;13.488;2022-11-15T00:51:54;5.50;1.00
1377;DHT22;682;52.502;13.488;2022-11-15T00:54:21;5.40;1.00
1377;DHT22;682;52.502;13.488;2022-11-15T00:56:58;5.40;1.00
1377;DHT22;682;52.502;13.488;2022-11-15T00:59:27;5.40;1.00
1377;DHT22;682;52.502;13.488;2022-11-15T01:01:54;5.40;1.00
1377;DHT22;682;52.502;13.488;2022-11-15T01:04:28;5.30;1.00
1377;DHT22;682;52.502;13.488;2022-11-15T01:06:54;5.40;1.00
1377;DHT22;682;52.502;13.488;2022-11-15T01:09:22;5.40;1.00
1377;DHT22;682;52.502;13.488;2022-11-15T01:11:53;5.40;1.00
1377;DHT22;682;52.502;13.488;2022-11-15T01:14:20;5.40;1.00
1377;DHT22;682;52.502;13.488;2022-11-15T01:16:53;5.30;1.00
1377;DHT22;682;52.502;13.488;2022-11-15T01:19:20;5.30;1.00
1377;DHT22;682;52.502;13.488;2022-11-15T01:22:00;5.30;1.00
1377;DHT22;682;52.502;13.488;2022-11-15T01:24:27;5.30;1.00
1377;DHT22;682;52.502;13.488;2022-11-15T01:26:55;5.30;1.00
1377;DHT22;682;52.502;13.488;2022-11-15T01:29:23;5.20;1.00
1377;DHT22;682;52.502;13.488;2022-11-15T01:31:53;5.20;1.00
1377;DHT22;682;52.502;13.488;2022-11-15T01:34:22;5.30;1.00
1377;DHT22;682;52.502;13.488;2022-11-15T01:36:54;5.30;1.00
1377;DHT22;682;52.502;13.488;2022-11-15T01:39:24;5.30;1.00
1377;DHT22;682;52.502;13.488;2022-11-15T01:41:54;5.20;1.00
1377;DHT22;682;52.502;13.488;2022-11-15T01:44:48;5.30;1.00
1377;DHT22;682;52.502;13.488;2022-11-15T01:47:18;5.20;1.00
1377;DHT22;682;52.502;13.488;2022-11-15T01:49:54;5.30;1.00
1377;DHT22;682;52.502;13.488;2022-11-15T01:52:28;5.30;1.00
1377;DHT22;682;52.502;13.488;2022-11-15T01:55:02;5.30;1.00
1377;DHT22;682;52.502;13.488;2022-11-15T01:57:38;5.30;1.00
1377;DHT22;682;52.502;13.488;2022-11-15T02:00:09;5.30;1.00
1377;DHT22;682;52.502;13.488;2022-11-15T02:02:37;5.20;1.00
1377;DHT22;682;52.502;13.488;2022-11-15T02:05:08;5.20;1.00
1377;DHT22;682;52.502;13.488;2022-11-15T02:07:36;5.10;1.00
1377;DHT22;682;52.502;13.488;2022-11-15T02:10:13;5.10;1.00
1377;DHT22;682;52.502;13.488;2022-11-15T02:12:41;5.20;1.00
1377;DHT22;682;52.502;13.488;2022-11-15T02:15:18;5.20;1.00
1377;DHT22;682;52.502;13.488;2022-11-15T02:17:59;5.10;1.00
1377;DHT22;682;52.502;13.488;2022-11-15T02:20:40;5.00;1.00
1377;DHT22;682;52.502;13.488;2022-11-15T02:23:49;5.10;1.00
1377;DHT22;682;52.502;13.488;2022-11-15T02:29:53;5.10;1.00
1377;DHT22;682;52.502;13.488;2022-11-15T02:32:35;5.10;1.00
1377;DHT22;682;52.502;13.488;2022-11-15T02:35:15;5.10;1.00
1377;DHT22;682;52.502;13.488;2022-11-15T02:37:53;5.10;1.00
1377;DHT22;682;52.502;13.488;2022-11-15T02:40:34;5.10;1.00
1377;DHT22;682;52.502;13.488;2022-11-15T02:43:10;5.10;1.00
1377;DHT22;682;52.502;13.488;2022-11-15T02:45:58;5.10;1.00
1377;DHT22;682;52.502;13.488;2022-11-15T02:48:31;5.10;1.00
1377;DHT22;682;52.502;13.488;2022-11-15T02:50:58;5.10;1.00
1377;DHT22;682;52.502;13.488;2022-11-15T02:53:30;5.10;1.00
1377;DHT22;682;52.502;13.488;2022-11-15T02:55:57;5.10;1.00
1377;DHT22;682;52.502;13.488;2022-11-15T02:58:52;5.10;1.00
1377;DHT22;682;52.502;13.488;2022-11-15T03:01:38;5.00;1.00
1377;DHT22;682;52.502;13.488;2022-11-15T03:04:29;5.00;1.00
1377;DHT22;682;52.502;13.488;2022-11-15T03:07:14;5.00;1.00
1377;DHT22;682;52.502;13.488;2022-11-15T03:09:52;4.90;1.00
1377;DHT22;682;52.502;13.488;2022-11-15T03:12:30;4.90;1.00
1377;DHT22;682;52.502;13.488;2022-11-15T03:15:08;4.90;1.00
1377;DHT22;682;52.502;13.488;2022-11-15T03:17:42;4.80;1.00
1377;DHT22;682;52.502;13.488;2022-11-15T03:20:17;4.80;1.00
1377;DHT22;682;52.502;13.488;2022-11-15T03:22:49;4.80;1.00
1377;DHT22;682;52.502;13.488;2022-11-15T03:25:19;4.80;1.00
1377;DHT22;682;52.502;13.488;2022-11-15T03:27:51;4.80;1.00
1377;DHT22;682;52.502;13.488;2022-11-15T03:30:19;4.80;1.00
1377;DHT22;682;52.502;13.488;2022-11-15T03:32:49;4.80;1.00
1377;DHT22;682;52.502;13.488;2022-11-15T03:35:22;4.70;1.00
1377;DHT22;682;52.502;13.488;2022-11-15T03:37:53;4.70;1.00
1377;DHT22;682;52.502;13.488;2022-11-15T03:40:29;4.70;1.00
1377;DHT22;682;52.502;13.488;2022-11-15T03:43:02;4.70;1.00
1377;DHT22;682;52.502;13.488;2022-11-15T03:45:33;4.70;1.00
1377;DHT22;682;52.502;13.488;2022-11-15T03:48:07;4.70;1.00
1377;DHT22;682;52.502;13.488;2022-11-15T03:50:39;4.60;1.00
1377;DHT22;682;52.502;13.488;2022-11-15T03:53:06;4.60;1.00
1377;DHT22;682;52.502;13.488;2022-11-15T03:55:34;4.50;1.00
1377;DHT22;682;52.502;13.488;2022-11-15T03:58:01;4.60;1.00
1377;DHT22;682;52.502;13.488;2022-11-15T04:00:30;4.60;1.00
1377;DHT22;682;52.502;13.488;2022-11-15T04:02:57;4.60;1.00
1377;DHT22;682;52.502;13.488;2022-11-15T04:05:25;4.60;1.00
1377;DHT22;682;52.502;13.488;2022-11-15T04:07:54;4.60;1.00
1377;DHT22;682;52.502;13.488;2022-11-15T04:10:21;4.60;1.00
1377;DHT22;682;52.502;13.488;2022-11-15T04:12:50;4.60;1.00
1377;DHT22;682;52.502;13.488;2022-11-15T04:15:19;4.50;1.00
1377;DHT22;682;52.502;13.488;2022-11-15T04:17:49;4.50;1.00
1377;DHT22;682;52.502;13.488;2022-11-15T04:20:19;4.50;1.00
1377;DHT22;682;52.502;13.488;2022-11-15T04:23:06;4.50;1.00
1377;DHT22;682;52.502;13.488;2022-11-15T04:25:52;4.50;1.00
1377;DHT22;682;52.502;13.488;2022-11-15T04:28:25;4.50;1.00
1377;DHT22;682;52.502;13.488;2022-11-15T04:30:52;4.50;1.00
1377;DHT22;682;52.502;13.488;2022-11-15T04:33:24;4.60;1.00
1377;DHT22;682;52.502;13.488;2022-11-15T04:35:58;4.60;1.00
1377;DHT22;682;52.502;13.488;2022-11-15T04:38:44;4.60;1.00
1377;DHT22;682;52.502;13.488;2022-11-15T04:41:11;4.60;1.00
1377;DHT22;682;52.502;13.488;2022-11-15T04:43:41;4.60;1.00
1377;DHT22;682;52.502;13.488;2022-11-15T04:46:08;4.60;1.00
1377;DHT22;682;52.502;13.488;2022-11-15T04:48:39;4.60;1.00
1377;DHT22;682;52.502;13.488;2022-11-15T04:51:18;4.60;1.00
1377;DHT22;682;52.502;13.488;2022-11-15T04:53:47;4.60;1.00
1377;DHT22;682;52.502;13.488;2022-11-15T04:56:16;4.60;1.00
1377;DHT22;682;52.502;13.488;2022-11-15T04:58:45;4.60;1.00
1377;DHT22;682;52.502;13.488;2022-11-15T05:01:13;4.60;1.00
1377;DHT22;682;52.502;13.488;2022-11-15T05:03:42;4.60;1.00
1377;DHT22;682;52.502;13.488;2022-11-15T05:06:28;4.60;1.00
1377;DHT22;682;52.502;13.488;2022-11-15T05:08:57;4.60;1.00
1377;DHT22;682;52.502;13.488;2022-11-15T05:11:24;4.60;1.00
1377;DHT22;682;52.502;13.488;2022-11-15T05:13:53;4.60;1.00
1377;DHT22;682;52.502;13.488;2022-11-15T05:16:20;4.70;1.00
1377;DHT22;682;52.502;13.488;2022-11-15T05:18:48;4.70;1.00
1377;DHT22;682;52.502;13.488;2022-11-15T05:21:17;4.70;1.00
1377;DHT22;682;52.502;13.488;2022-11-15T05:23:46;4.70;1.00
1377;DHT22;682;52.502;13.488;2022-11-15T05:26:18;4.70;1.00
1377;DHT22;682;52.502;13.488;2022-11-15T05:28:51;4.80;1.00
1377;DHT22;682;52.502;13.488;2022-11-15T05:31:18;4.70;1.00
1377;DHT22;682;52.502;13.488;2022-11-15T05:33:45;4.80;1.00
1377;DHT22;682;52.502;13.488;2022-11-15T05:36:17;4.80;1.00
1377;DHT22;682;52.502;13.488;2022-11-15T05:38:45;4.80;1.00
1377;DHT22;682;52.502;13.488;2022-11-15T05:41:15;4.90;1.00
1377;DHT22;682;52.502;13.488;2022-11-15T05:43:44;4.90;1.00
1377;DHT22;682;52.502;13.488;2022-11-15T05:46:13;4.90;1.00
1377;DHT22;682;52.502;13.488;2022-11-15T05:48:44;4.90;1.00
1377;DHT22;682;52.502;13.488;2022-11-15T05:51:14;4.90;1.00
1377;DHT22;682;52.502;13.488;2022-11-15T05:53:43;4.90;1.00
1377;DHT22;682;52.502;13.488;2022-11-15T05:56:10;4.90;1.00
1377;DHT22;682;52.502;13.488;2022-11-15T05:58:40;4.90;1.00
1377;DHT22;682;52.502;13.488;2022-11-15T06:01:08;4.80;1.00
1377;DHT22;682;52.502;13.488;2022-11-15T06:03:35;4.90;1.00
1377;DHT22;682;52.502;13.488;2022-11-15T06:06:04;4.90;1.00
1377;DHT22;682;52.502;13.488;2022-11-15T06:08:31;4.80;1.00
1377;DHT22;682;52.502;13.488;2022-11-15T06:11:03;4.80;1.00
1377;DHT22;682;52.502;13.488;2022-11-15T06:13:30;4.90;1.00
1377;DHT22;682;52.502;13.488;2022-11-15T06:15:59;4.90;1.00
1377;DHT22;682;52.502;13.488;2022-11-15T06:18:26;4.90;1.00
1377;DHT22;682;52.502;13.488;2022-11-15T06:20:58;4.90;1.00
1377;DHT22;682;52.502;13.488;2022-11-15T06:23:31;4.90;1.00
1377;DHT22;682;52.502;13.488;2022-11-15T06:25:58;4.90;1.00
1377;DHT22;682;52.502;13.488;2022-11-15T06:28:29;5.00;1.00
1377;DHT22;682;52.502;13.488;2022-11-15T06:31:03;5.00;1.00
1377;DHT22;682;52.502;13.488;2022-11-15T06:33:36;5.00;1.00
1377;DHT22;682;52.502;13.488;2022-11-15T06:36:12;5.10;1.00
1377;DHT22;682;52.502;13.488;2022-11-15T06:38:52;5.10;1.00
1377;DHT22;682;52.502;13.488;2022-11-15T06:41:23;5.10;1.00
1377;DHT22;682;52.502;13.488;2022-11-15T06:43:57;5.20;1.00
1377;DHT22;682;52.502;13.488;2022-11-15T06:46:39;5.20;1.00
1377;DHT22;682;52.502;13.488;2022-11-15T06:49:12;5.20;1.00
1377;DHT22;682;52.502;13.488;2022-11-15T06:51:40;5.20;1.00
1377;DHT22;682;52.502;13.488;2022-11-15T06:54:12;5.30;1.00
1377;DHT22;682;52.502;13.488;2022-11-15T06:56:40;5.30;1.00
1377;DHT22;682;52.502;13.488;2022-11-15T06:59:12;5.40;1.00
1377;DHT22;682;52.502;13.488;2022-11-15T07:01:41;5.50;1.00
1377;DHT22;682;52.502;13.488;2022-11-15T07:04:09;5.50;1.00
1377;DHT22;682;52.502;13.488;2022-11-15T07:06:38;5.50;1.00
1377;DHT22;682;52.502;13.488;2022-11-15T07:09:09;5.50;1.00
1377;DHT22;682;52.502;13.488;2022-11-15T07:11:36;5.60;1.00
1377;DHT22;682;52.502;13.488;2022-11-15T07:14:03;5.60;1.00
1377;DHT22;682;52.502;13.488;2022-11-15T07:16:35;5.70;1.00
1377;DHT22;682;52.502;13.488;2022-11-15T07:19:08;5.70;1.00
1377;DHT22;682;52.502;13.488;2022-11-15T07:21:36;5.70;1.00
1377;DHT22;682;52.502;13.488;2022-11-15T07:24:09;5.80;1.00
1377;DHT22;682;52.502;13.488;2022-11-15T07:26:36;5.90;1.00
1377;DHT22;682;52.502;13.488;2022-11-15T07:29:03;5.90;1.00
1377;DHT22;682;52.502;13.488;2022-11-15T07:31:35;6.00;1.00
1377;DHT22;682;52.502;13.488;2022-11-15T07:34:03;6.10;1.00
1377;DHT22;682;52.502;13.488;2022-11-15T07:36:35;6.10;1.00
1377;DHT22;682;52.502;13.488;2022-11-15T07:39:03;6.10;1.00
1377;DHT22;682;52.502;13.488;2022-11-15T07:41:35;6.20;1.00
1377;DHT22;682;52.502;13.488;2022-11-15T07:44:02;6.20;1.00
1377;DHT22;682;52.502;13.488;2022-11-15T07:46:29;6.30;1.00
1377;DHT22;682;52.502;13.488;2022-11-15T07:48:56;6.40;1.00
1377;DHT22;682;52.502;13.488;2022-11-15T07:51:29;6.40;1.00
1377;DHT22;682;52.502;13.488;2022-11-15T07:53:56;6.40;1.00
1377;DHT22;682;52.502;13.488;2022-11-15T07:56:23;6.50;1.00
1377;DHT22;682;52.502;13.488;2022-11-15T07:58:54;6.70;1.00
1377;DHT22;682;52.502;13.488;2022-11-15T08:01:23;6.80;1.00
1377;DHT22;682;52.502;13.488;2022-11-15T08:03:55;7.00;1.00
1377;DHT22;682;52.502;13.488;2022-11-15T08:06:22;7.20;1.00
1377;DHT22;682;52.502;13.488;2022-11-15T08:08:56;7.30;1.00
1377;DHT22;682;52.502;13.488;2022-11-15T08:11:23;7.40;1.00
1377;DHT22;682;52.502;13.488;2022-11-15T08:13:58;7.40;1.00
1377;DHT22;682;52.502;13.488;2022-11-15T08:16:29;7.50;1.00
1377;DHT22;682;52.502;13.488;2022-11-15T08:18:56;7.70;1.00
1377;DHT22;682;52.502;13.488;2022-11-15T08:21:23;7.90;1.00
1377;DHT22;682;52.502;13.488;2022-11-15T08:23:56;8.10;1.00
1377;DHT22;682;52.502;13.488;2022-11-15T08:26:23;8.10;1.00
1377;DHT22;682;52.502;13.488;2022-11-15T08:28:57;8.00;1.00
1377;DHT22;682;52.502;13.488;2022-11-15T08:31:29;8.10;1.00
1377;DHT22;682;52.502;13.488;2022-11-15T08:33:56;8.20;1.00
1377;DHT22;682;52.502;13.488;2022-11-15T08:36:22;8.20;1.00
1377;DHT22;682;52.502;13.488;2022-11-15T08:38:58;8.30;1.00
1377;DHT22;682;52.502;13.488;2022-11-15T08:41:30;8.30;1.00
1377;DHT22;682;52.502;13.488;2022-11-15T08:43:59;8.40;1.00
1377;DHT22;682;52.502;13.488;2022-11-15T08:46:29;8.50;1.00
1377;DHT22;682;52.502;13.488;2022-11-15T08:48:56;8.50;1.00
1377;DHT22;682;52.502;13.488;2022-11-15T08:51:23;8.60;1.00
1377;DHT22;682;52.502;13.488;2022-11-15T08:53:54;8.60;1.00
1377;DHT22;682;52.502;13.488;2022-11-15T08:56:22;8.60;1.00
1377;DHT22;682;52.502;13.488;2022-11-15T08:58:49;8.70;1.00
1377;DHT22;682;52.502;13.488;2022-11-15T09:01:19;8.80;1.00
1377;DHT22;682;52.502;13.488;2022-11-15T09:03:50;8.90;1.00
1377;DHT22;682;52.502;13.488;2022-11-15T09:06:18;8.80;1.00
1377;DHT22;682;52.502;13.488;2022-11-15T09:08:52;8.90;1.00
1377;DHT22;682;52.502;13.488;2022-11-15T09:11:21;9.10;1.00
1377;DHT22;682;52.502;13.488;2022-11-15T09:13:51;9.30;1.00
1377;DHT22;682;52.502;13.488;2022-11-15T09:16:18;9.60;1.00
1377;DHT22;682;52.502;13.488;2022-11-15T09:18:50;9.70;1.00
1377;DHT22;682;52.502;13.488;2022-11-15T09:21:16;9.90;1.00
1377;DHT22;682;52.502;13.488;2022-11-15T09:23:43;10.20;1.00
1377;DHT22;682;52.502;13.488;2022-11-15T09:26:18;10.50;1.00
1377;DHT22;682;52.502;13.488;2022-11-15T09:28:53;10.80;1.00
1377;DHT22;682;52.502;13.488;2022-11-15T09:31:20;11.20;1.00
1377;DHT22;682;52.502;13.488;2022-11-15T09:33:49;11.30;1.00
1377;DHT22;682;52.502;13.488;2022-11-15T09:36:16;11.40;1.00
1377;DHT22;682;52.502;13.488;2022-11-15T09:38:43;11.50;1.00
1377;DHT22;682;52.502;13.488;2022-11-15T09:41:34;11.80;1.00
1377;DHT22;682;52.502;13.488;2022-11-15T09:44:29;12.50;1.00
1377;DHT22;682;52.502;13.488;2022-11-15T09:47:19;13.30;1.00
1377;DHT22;682;52.502;13.488;2022-11-15T09:49:51;13.70;1.00
1377;DHT22;682;52.502;13.488;2022-11-15T09:52:21;13.80;1.00
1377;DHT22;682;52.502;13.488;2022-11-15T09:54:51;13.90;1.00
1377;DHT22;682;52.502;13.488;2022-11-15T09:57:21;13.60;1.00
1377;DHT22;682;52.502;13.488;2022-11-15T10:00:15;13.40;1.00
1377;DHT22;682;52.502;13.488;2022-11-15T10:02:57;13.20;1.00
1377;DHT22;682;52.502;13.488;2022-11-15T10:05:37;13.20;1.00
1377;DHT22;682;52.502;13.488;2022-11-15T10:08:20;13.60;1.00
1377;DHT22;682;52.502;13.488;2022-11-15T10:10:52;13.90;1.00
1377;DHT22;682;52.502;13.488;2022-11-15T10:13:26;14.00;1.00
1377;DHT22;682;52.502;13.488;2022-11-15T10:16:04;14.60;1.00
1377;DHT22;682;52.502;13.488;2022-11-15T10:18:43;15.70;1.00
1377;DHT22;682;52.502;13.488;2022-11-15T10:21:20;16.50;1.00
1377;DHT22;682;52.502;13.488;2022-11-15T10:23:53;16.40;1.00
1377;DHT22;682;52.502;13.488;2022-11-15T10:26:21;16.30;1.00
1377;DHT22;682;52.502;13.488;2022-11-15T10:28:51;16.00;1.00
1377;DHT22;682;52.502;13.488;2022-11-15T10:31:25;16.30;1.00
1377;DHT22;682;52.502;13.488;2022-11-15T10:34:16;16.60;1.00
1377;DHT22;682;52.502;13.488;2022-11-15T10:36:53;16.50;1.00
1377;DHT22;682;52.502;13.488;2022-11-15T10:39:21;16.00;1.00
1377;DHT22;682;52.502;13.488;2022-11-15T10:41:50;16.20;1.00
1377;DHT22;682;52.502;13.488;2022-11-15T10:44:50;16.10;1.00
1377;DHT22;682;52.502;13.488;2022-11-15T10:47:33;16.20;1.00
1377;DHT22;682;52.502;13.488;2022-11-15T10:50:03;16.70;1.00
1377;DHT22;682;52.502;13.488;2022-11-15T10:52:35;17.50;1.00
1377;DHT22;682;52.502;13.488;2022-11-15T10:55:20;17.80;1.00
1377;DHT22;682;52.502;13.488;2022-11-15T10:57:52;17.70;1.00
1377;DHT22;682;52.502;13.488;2022-11-15T11:00:32;17.70;1.00
1377;DHT22;682;52.502;13.488;2022-11-15T11:03:04;17.60;1.00
1377;DHT22;682;52.502;13.488;2022-11-15T11:05:34;17.50;1.00
1377;DHT22;682;52.502;13.488;2022-11-15T11:08:21;17.60;1.00
1377;DHT22;682;52.502;13.488;2022-11-15T11:10:52;17.90;1.00
1377;DHT22;682;52.502;13.488;2022-11-15T11:13:28;18.20;1.00
1377;DHT22;682;52.502;13.488;2022-11-15T11:16:05;18.60;1.00
1377;DHT22;682;52.502;13.488;2022-11-15T11:18:45;19.20;1.00
1377;DHT22;682;52.502;13.488;2022-11-15T11:21:26;19.50;1.00
1377;DHT22;682;52.502;13.488;2022-11-15T11:24:08;19.20;1.00
1377;DHT22;682;52.502;13.488;2022-11-15T11:26:44;19.20;1.00
1377;DHT22;682;52.502;13.488;2022-11-15T11:29:30;19.30;1.00
1377;DHT22;682;52.502;13.488;2022-11-15T11:32:13;19.80;1.00
1377;DHT22;682;52.502;13.488;2022-11-15T11:35:04;20.90;1.00
1377;DHT22;682;52.502;13.488;2022-11-15T11:37:43;21.40;1.00
1377;DHT22;682;52.502;13.488;2022-11-15T11:40:24;21.40;1.00
1377;DHT22;682;52.502;13.488;2022-11-15T11:43:02;21.00;1.00
1377;DHT22;682;52.502;13.488;2022-11-15T11:45:48;20.90;1.00
1377;DHT22;682;52.502;13.488;2022-11-15T11:48:40;20.90;1.00
1377;DHT22;682;52.502;13.488;2022-11-15T11:51:13;20.80;1.00
1377;DHT22;682;52.502;13.488;2022-11-15T11:53:52;21.40;1.00
1377;DHT22;682;52.502;13.488;2022-11-15T11:56:28;21.80;1.00
1377;DHT22;682;52.502;13.488;2022-11-15T11:59:02;22.20;1.00
1377;DHT22;682;52.502;13.488;2022-11-15T12:01:42;22.50;1.00
1377;DHT22;682;52.502;13.488;2022-11-15T12:04:14;23.10;1.00
1377;DHT22;682;52.502;13.488;2022-11-15T12:06:50;23.80;1.00
1377;DHT22;682;52.502;13.488;2022-11-15T12:09:26;24.30;1.00
1377;DHT22;682;52.502;13.488;2022-11-15T12:12:05;24.50;1.00
1377;DHT22;682;52.502;13.488;2022-11-15T12:14:42;24.80;1.00
1377;DHT22;682;52.502;13.488;2022-11-15T12:17:11;25.30;1.00
1377;DHT22;682;52.502;13.488;2022-11-15T12:19:42;26.10;1.00
1377;DHT22;682;52.502;13.488;2022-11-15T12:22:18;26.90;1.00
1377;DHT22;682;52.502;13.488;2022-11-15T12:24:50;27.30;1.00
1377;DHT22;682;52.502;13.488;2022-11-15T12:27:32;27.30;1.00
1377;DHT22;682;52.502;13.488;2022-11-15T12:30:11;25.60;1.00
1377;DHT22;682;52.502;13.488;2022-11-15T12:32:51;23.30;1.00
1377;DHT22;682;52.502;13.488;2022-11-15T12:35:34;22.80;1.00
1377;DHT22;682;52.502;13.488;2022-11-15T12:38:12;22.50;1.00
1377;DHT22;682;52.502;13.488;2022-11-15T12:41:12;22.90;1.00
1377;DHT22;682;52.502;13.488;2022-11-15T12:43:44;23.30;1.00
1377;DHT22;682;52.502;13.488;2022-11-15T12:52:10;24.10;1.00
1377;DHT22;682;52.502;13.488;2022-11-15T12:55:02;23.80;1.00
1377;DHT22;682;52.502;13.488;2022-11-15T12:57:34;23.70;1.00
1377;DHT22;682;52.502;13.488;2022-11-15T13:03:26;24.50;1.00
1377;DHT22;682;52.502;13.488;2022-11-15T13:06:39;24.30;1.00
1377;DHT22;682;52.502;13.488;2022-11-15T13:09:00;24.70;1.00
1377;DHT22;682;52.502;13.488;2022-11-15T13:11:50;23.30;1.00
1377;DHT22;682;52.502;13.488;2022-11-15T13:14:47;21.90;1.00
1377;DHT22;682;52.502;13.488;2022-11-15T13:17:30;20.70;1.00
1377;DHT22;682;52.502;13.488;2022-11-15T13:20:16;19.70;1.00
1377;DHT22;682;52.502;13.488;2022-11-15T13:22:48;19.00;1.00
1377;DHT22;682;52.502;13.488;2022-11-15T13:28:29;17.90;1.00
1377;DHT22;682;52.502;13.488;2022-11-15T13:31:01;17.40;1.00
1377;DHT22;682;52.502;13.488;2022-11-15T13:33:32;16.60;1.00
1377;DHT22;682;52.502;13.488;2022-11-15T13:36:02;16.40;1.00
1377;DHT22;682;52.502;13.488;2022-11-15T13:38:32;16.20;1.00
1377;DHT22;682;52.502;13.488;2022-11-15T13:41:14;15.90;1.00
1377;DHT22;682;52.502;13.488;2022-11-15T13:43:50;15.80;1.00
1377;DHT22;682;52.502;13.488;2022-11-15T13:46:22;15.70;1.00
1377;DHT22;682;52.502;13.488;2022-11-15T13:48:55;15.60;1.00
1377;DHT22;682;52.502;13.488;2022-11-15T13:51:36;15.40;1.00
1377;DHT22;682;52.502;13.488;2022-11-15T13:54:15;15.30;1.00
1377;DHT22;682;52.502;13.488;2022-11-15T13:56:52;15.10;1.00
1377;DHT22;682;52.502;13.488;2022-11-15T13:59:27;15.00;1.00
1377;DHT22;682;52.502;13.488;2022-11-15T14:02:02;14.90;1.00
1377;DHT22;682;52.502;13.488;2022-11-15T14:04:30;14.90;1.00
1377;DHT22;682;52.502;13.488;2022-11-15T14:07:02;14.80;1.00
1377;DHT22;682;52.502;13.488;2022-11-15T14:09:35;14.80;1.00
1377;DHT22;682;52.502;13.488;2022-11-15T14:12:27;14.70;1.00
1377;DHT22;682;52.502;13.488;2022-11-15T14:15:18;14.60;1.00
1377;DHT22;682;52.502;13.488;2022-11-15T14:17:51;14.60;1.00
1377;DHT22;682;52.502;13.488;2022-11-15T14:20:30;14.60;1.00
1377;DHT22;682;52.502;13.488;2022-11-15T14:23:01;14.50;1.00
1377;DHT22;682;52.502;13.488;2022-11-15T14:25:29;14.50;1.00
1377;DHT22;682;52.502;13.488;2022-11-15T14:28:15;14.40;1.00
1377;DHT22;682;52.502;13.488;2022-11-15T14:30:45;14.30;1.00
1377;DHT22;682;52.502;13.488;2022-11-15T14:33:20;14.20;1.00
1377;DHT22;682;52.502;13.488;2022-11-15T14:35:50;14.00;1.00
1377;DHT22;682;52.502;13.488;2022-11-15T14:38:17;14.00;1.00
1377;DHT22;682;52.502;13.488;2022-11-15T14:40:44;13.90;1.00
1377;DHT22;682;52.502;13.488;2022-11-15T14:43:12;13.90;1.00
1377;DHT22;682;52.502;13.488;2022-11-15T14:45:41;13.80;1.00
1377;DHT22;682;52.502;13.488;2022-11-15T14:48:10;13.70;1.00
1377;DHT22;682;52.502;13.488;2022-11-15T14:50:41;13.60;1.00
1377;DHT22;682;52.502;13.488;2022-11-15T14:53:12;13.60;1.00
1377;DHT22;682;52.502;13.488;2022-11-15T14:55:40;13.50;1.00
1377;DHT22;682;52.502;13.488;2022-11-15T14:58:10;13.50;1.00
1377;DHT22;682;52.502;13.488;2022-11-15T15:00:41;13.30;1.00
1377;DHT22;682;52.502;13.488;2022-11-15T15:03:15;13.20;1.00
1377;DHT22;682;52.502;13.488;2022-11-15T15:05:57;13.10;1.00
1377;DHT22;682;52.502;13.488;2022-11-15T15:08:24;13.10;1.00
1377;DHT22;682;52.502;13.488;2022-11-15T15:10:56;13.00;1.00
1377;DHT22;682;52.502;13.488;2022-11-15T15:13:24;12.90;1.00
1377;DHT22;682;52.502;13.488;2022-11-15T15:16:01;12.90;1.00
1377;DHT22;682;52.502;13.488;2022-11-15T15:18:31;12.80;1.00
1377;DHT22;682;52.502;13.488;2022-11-15T15:21:02;12.70;1.00
1377;DHT22;682;52.502;13.488;2022-11-15T15:23:33;12.60;1.00
1377;DHT22;682;52.502;13.488;2022-11-15T15:26:01;12.60;1.00
1377;DHT22;682;52.502;13.488;2022-11-15T15:28:31;12.60;1.00
1377;DHT22;682;52.502;13.488;2022-11-15T15:31:01;12.60;1.00
1377;DHT22;682;52.502;13.488;2022-11-15T15:33:32;12.50;1.00
1377;DHT22;682;52.502;13.488;2022-11-15T15:36:00;12.50;1.00
1377;DHT22;682;52.502;13.488;2022-11-15T15:38:31;12.40;1.00
1377;DHT22;682;52.502;13.488;2022-11-15T15:41:00;12.30;1.00
1377;DHT22;682;52.502;13.488;2022-11-15T15:43:28;12.20;1.00
1377;DHT22;682;52.502;13.488;2022-11-15T15:45:57;12.20;1.00
1377;DHT22;682;52.502;13.488;2022-11-15T15:48:24;12.10;1.00
1377;DHT22;682;52.502;13.488;2022-11-15T15:51:00;12.00;1.00
1377;DHT22;682;52.502;13.488;2022-11-15T15:53:31;12.00;1.00
1377;DHT22;682;52.502;13.488;2022-11-15T15:55:59;11.90;1.00
1377;DHT22;682;52.502;13.488;2022-11-15T15:58:31;11.90;1.00
1377;DHT22;682;52.502;13.488;2022-11-15T16:00:58;11.90;1.00
1377;DHT22;682;52.502;13.488;2022-11-15T16:03:35;11.80;1.00
1377;DHT22;682;52.502;13.488;2022-11-15T16:06:34;11.70;1.00
1377;DHT22;682;52.502;13.488;2022-11-15T16:09:03;11.70;1.00
1377;DHT22;682;52.502;13.488;2022-11-15T16:11:36;11.70;1.00
1377;DHT22;682;52.502;13.488;2022-11-15T16:14:03;11.70;1.00
1377;DHT22;682;52.502;13.488;2022-11-15T16:16:31;11.60;1.00
1377;DHT22;682;52.502;13.488;2022-11-15T16:18:58;11.50;1.00
1377;DHT22;682;52.502;13.488;2022-11-15T16:21:32;11.50;1.00
1377;DHT22;682;52.502;13.488;2022-11-15T16:23:59;11.40;1.00
1377;DHT22;682;52.502;13.488;2022-11-15T16:26:34;11.30;1.00
1377;DHT22;682;52.502;13.488;2022-11-15T16:29:03;11.20;1.00
1377;DHT22;682;52.502;13.488;2022-11-15T16:31:32;11.10;1.00
1377;DHT22;682;52.502;13.488;2022-11-15T16:34:00;11.00;1.00
1377;DHT22;682;52.502;13.488;2022-11-15T16:36:30;10.90;1.00
1377;DHT22;682;52.502;13.488;2022-11-15T16:39:01;10.90;1.00
1377;DHT22;682;52.502;13.488;2022-11-15T16:41:32;10.80;1.00
1377;DHT22;682;52.502;13.488;2022-11-15T16:43:59;10.70;1.00
1377;DHT22;682;52.502;13.488;2022-11-15T16:46:32;10.60;1.00
1377;DHT22;682;52.502;13.488;2022-11-15T16:49:00;10.50;1.00
1377;DHT22;682;52.502;13.488;2022-11-15T16:51:34;10.50;1.00
1377;DHT22;682;52.502;13.488;2022-11-15T16:54:11;10.40;1.00
1377;DHT22;682;52.502;13.488;2022-11-15T16:56:39;10.40;1.00
1377;DHT22;682;52.502;13.488;2022-11-15T16:59:15;10.30;1.00
1377;DHT22;682;52.502;13.488;2022-11-15T17:01:43;10.20;1.00
1377;DHT22;682;52.502;13.488;2022-11-15T17:04:18;10.10;1.00
1377;DHT22;682;52.502;13.488;2022-11-15T17:06:51;9.90;1.00
1377;DHT22;682;52.502;13.488;2022-11-15T17:09:21;9.90;1.00
1377;DHT22;682;52.502;13.488;2022-11-15T17:11:51;9.80;1.00
1377;DHT22;682;52.502;13.488;2022-11-15T17:14:18;9.70;1.00
1377;DHT22;682;52.502;13.488;2022-11-15T17:16:50;9.70;1.00
1377;DHT22;682;52.502;13.488;2022-11-15T17:19:19;9.60;1.00
1377;DHT22;682;52.502;13.488;2022-11-15T17:21:52;9.60;1.00